SLE - Mcnary Fld

Pirep is a free, collaborative database of all public and private airports located within the United States. All pilots are welcome to contribute, edit, and improve any airport they have local knowledge about, no registration required.
Uploaded photos will be licensed under a CC BY-SA 4.0 license. Please only upload photos you have the rights to use.
Tags
Public
Food
Car Rental
METAR / TAF
Flying Clubs
Edit Tags
Camping
Lodging
Bicycles
Swimming
Golfing
Fishing
Hot Springs
Museum
Airpark
Upcoming Events
No upcoming events. Is anything happening here soon?
*
*
*

Where exactly on/near the airport is this event taking place?

Is there a webpage with more information for this event?

Who should be contacted for more information?

What is this event all about?

Repeat every
Description
Last updated: 2023-12-10 02:18:50 PST
Transient Parking
Fuel Location
Landing & Tie-down Fees
Crew Car Availability
Flying Clubs
Last updated: 2024-02-14 22:40:11 PST
WiFi Access
Airport Statistics
Location: Salem, OR
Elevation: 213ft
Sectional: Seattle
Activation date: Nov 1937
Fuel: 100LL, A (prices)
Runway 13/31: 5,811ft
Runway 16/34: 5,146ft
Runway H1: 37ft
Access: Open to the public
Current Weather — MVFR
  • Weather data is strictly informational and not for flight planning purposes.
  • METAR
    2024-05-28 15:03:00 PDT
    Ceiling Wind Temperature Dewpoint Weather Visbility
    2,500ft 310° @ 4kt 60°F 51°F N/A 10SM
    Clouds: Broken @ 2,500ft, Broken @ 4,600ft, Overcast @ 7,000ft
    Raw: KSLE 282203Z 31004KT 10SM BKN025 BKN046 OVC070 16/11 A3018 RMK AO2 RAE2157 P0000 T01560111
  • TAF
    2024-05-28 11:00:00 PDT – 2024-05-28 15:00:00 PDT
    Ceiling Wind Weather Visbility
    2,500ft 220° @ 7kt Light rain 6SM
    Clouds: Broken @ 2,500ft, Overcast @ 4,000ft
    Raw: KSLE 281740Z 2818/2918 22007KT P6SM -RA BKN025 OVC040 FM282200 23008KT P6SM VCSH SCT025 BKN035 FM290200 23005KT P6SM SCT035 BKN050 FM291700 21005KT P6SM BKN025
  • TAF
    2024-05-28 15:00:00 PDT – 2024-05-28 19:00:00 PDT
    Ceiling Wind Weather Visbility
    3,500ft 230° @ 8kt Showers in vicinity 6SM
    Clouds: Scattered @ 2,500ft, Broken @ 3,500ft
    Raw: KSLE 281740Z 2818/2918 22007KT P6SM -RA BKN025 OVC040 FM282200 23008KT P6SM VCSH SCT025 BKN035 FM290200 23005KT P6SM SCT035 BKN050 FM291700 21005KT P6SM BKN025
  • TAF
    2024-05-28 19:00:00 PDT – 2024-05-29 10:00:00 PDT
    Ceiling Wind Weather Visbility
    5,000ft 230° @ 5kt N/A 6SM
    Clouds: Scattered @ 3,500ft, Broken @ 5,000ft
    Raw: KSLE 281740Z 2818/2918 22007KT P6SM -RA BKN025 OVC040 FM282200 23008KT P6SM VCSH SCT025 BKN035 FM290200 23005KT P6SM SCT035 BKN050 FM291700 21005KT P6SM BKN025
  • TAF
    2024-05-29 10:00:00 PDT – 2024-05-29 11:00:00 PDT
    Ceiling Wind Weather Visbility
    2,500ft 210° @ 5kt N/A 6SM
    Clouds: Broken @ 2,500ft
    Raw: KSLE 281740Z 2818/2918 22007KT P6SM -RA BKN025 OVC040 FM282200 23008KT P6SM VCSH SCT025 BKN035 FM290200 23005KT P6SM SCT035 BKN050 FM291700 21005KT P6SM BKN025
Click/tap to add an annotation marker to the map
Airport Webcams
No webcams added yet.
Direct links to live image URLs will be displayed inline on this page. URLs to separate webpages will be linked to.
URL:
Direct links to live image URLs will be displayed inline on this page. URLs to separate webpages will be linked to.
URL:
Remarks
  • Estbd prior to 1959.
  • Ppr for unsked acr opns with more than 30 psgr seats call amgr on 503-588-6314.
  • Bird hazard: hvy concentration waterfowl adj to apt & apchs to all rys. flocks of geese concentrated transiting class d airspace at tpa oct-may.
  • Twy 'a' fm twy 'l' to 'l9' not visible fm atct.
  • Self fueling, 100ll only, avbl 24 hrs a day. jet a avbl aft nml bus hrs with advnd notice at 503-508-4178 or 503-364-4158.
Comments
Leave a comment What was your experience like at this airport?